createdAt,value
2022-12-24T00:00:35.747Z,11.19
2022-12-24T00:03:02.556Z,11.19
2022-12-24T00:05:29.181Z,11.19
2022-12-24T00:07:55.743Z,11.20
2022-12-24T00:10:22.357Z,11.19
2022-12-24T00:12:48.916Z,11.19
2022-12-24T00:15:15.636Z,11.19
2022-12-24T00:17:42.245Z,11.19
2022-12-24T00:20:09.292Z,11.17
2022-12-24T00:22:35.936Z,11.15
2022-12-24T00:25:02.578Z,11.12
2022-12-24T00:27:29.195Z,11.09
2022-12-24T00:29:55.776Z,11.06
2022-12-24T00:32:22.387Z,11.00
2022-12-24T00:34:49.097Z,11.06
2022-12-24T00:37:15.845Z,11.04
2022-12-24T00:39:42.398Z,11.01
2022-12-24T00:42:08.940Z,11.02
2022-12-24T00:44:35.469Z,11.03
2022-12-24T00:47:05.446Z,11.03
2022-12-24T00:49:35.079Z,11.02
2022-12-24T00:52:03.153Z,10.96
2022-12-24T00:54:29.967Z,11.02
2022-12-24T00:56:56.707Z,11.01
2022-12-24T00:59:23.239Z,11.00
2022-12-24T01:01:49.898Z,10.97
2022-12-24T01:04:34.978Z,10.97
2022-12-24T01:07:01.539Z,10.97
2022-12-24T01:09:29.199Z,10.99
2022-12-24T01:11:55.844Z,11.01
2022-12-24T01:14:22.438Z,10.98
2022-12-24T01:16:49.042Z,11.02
2022-12-24T01:19:15.603Z,11.02
2022-12-24T01:21:42.156Z,11.01
2022-12-24T01:24:11.738Z,10.97
2022-12-24T01:26:38.333Z,10.95
2022-12-24T01:29:05.073Z,10.92
2022-12-24T01:31:31.737Z,10.94
2022-12-24T01:33:58.361Z,10.98
2022-12-24T01:36:25.063Z,11.00
2022-12-24T01:38:51.707Z,10.97
2022-12-24T01:41:37.661Z,10.93
2022-12-24T01:44:19.680Z,10.89
2022-12-24T01:46:46.248Z,10.86
2022-12-24T01:49:14.261Z,10.81
2022-12-24T01:51:42.747Z,10.86
2022-12-24T01:54:09.219Z,10.76
2022-12-24T01:56:36.382Z,10.73
2022-12-24T01:59:07.039Z,10.74
2022-12-24T02:01:33.813Z,10.76
2022-12-24T02:04:01.470Z,10.74
2022-12-24T02:06:28.052Z,10.68
2022-12-24T02:08:55.219Z,10.63
2022-12-24T02:11:22.203Z,10.65
2022-12-24T02:13:55.679Z,10.72
2022-12-24T02:16:28.466Z,10.72
2022-12-24T02:18:55.273Z,10.64
2022-12-24T02:21:22.015Z,10.55
2022-12-24T02:24:07.747Z,10.60
2022-12-24T02:26:53.028Z,10.52
2022-12-24T02:29:38.569Z,10.48
2022-12-24T02:32:06.122Z,10.41
2022-12-24T02:34:40.027Z,10.41
2022-12-24T02:37:15.392Z,10.32
2022-12-24T02:39:59.002Z,10.28
2022-12-24T02:42:26.770Z,10.34
2022-12-24T02:44:55.427Z,10.32
2022-12-24T02:47:22.554Z,10.36
2022-12-24T02:49:49.190Z,10.31
2022-12-24T02:52:27.801Z,10.27
2022-12-24T02:54:54.354Z,10.20
2022-12-24T02:57:28.228Z,10.18
2022-12-24T03:00:03.991Z,10.26
2022-12-24T03:02:35.002Z,10.20
2022-12-24T03:05:20.282Z,10.08
2022-12-24T03:08:05.832Z,10.07
2022-12-24T03:10:35.155Z,10.02
2022-12-24T03:13:06.821Z,10.02
2022-12-24T03:15:33.355Z,9.96
2022-12-24T03:18:00.668Z,9.90
2022-12-24T03:20:30.808Z,9.92
2022-12-24T03:22:57.711Z,9.92
2022-12-24T03:25:24.511Z,9.93
2022-12-24T03:27:51.055Z,9.90
2022-12-24T03:30:18.467Z,9.92
2022-12-24T03:32:45.223Z,10.05
2022-12-24T03:35:11.740Z,10.02
2022-12-24T03:37:38.344Z,9.93
2022-12-24T03:40:05.525Z,9.89
2022-12-24T03:42:32.024Z,9.87
2022-12-24T03:44:58.542Z,9.86
2022-12-24T03:47:25.043Z,9.83
2022-12-24T03:49:51.984Z,9.82
2022-12-24T03:52:18.487Z,9.87
2022-12-24T03:54:45.036Z,9.81
2022-12-24T03:57:11.557Z,9.87
2022-12-24T03:59:38.125Z,9.79
2022-12-24T04:02:04.791Z,9.82
2022-12-24T04:04:33.506Z,9.83
2022-12-24T04:07:00.113Z,9.81
2022-12-24T04:09:26.581Z,9.86
2022-12-24T04:11:53.233Z,9.86
2022-12-24T04:14:19.822Z,9.83
2022-12-24T04:16:46.393Z,9.89
2022-12-24T04:19:12.963Z,9.84
2022-12-24T04:21:39.452Z,9.77
2022-12-24T04:24:06.156Z,9.74
2022-12-24T04:26:32.632Z,9.82
2022-12-24T04:28:59.275Z,9.76
2022-12-24T04:31:25.841Z,9.79
2022-12-24T04:33:53.192Z,9.80
2022-12-24T04:36:19.974Z,9.77
2022-12-24T04:38:47.174Z,9.71
2022-12-24T04:41:20.725Z,9.71
2022-12-24T04:43:50.177Z,9.76
2022-12-24T04:46:20.350Z,9.72
2022-12-24T04:48:47.707Z,9.70
2022-12-24T04:51:14.403Z,9.72
2022-12-24T04:53:41.024Z,9.77
2022-12-24T04:56:08.406Z,9.83
2022-12-24T04:58:34.897Z,9.84
2022-12-24T05:01:05.200Z,9.86
2022-12-24T05:03:31.939Z,9.89
2022-12-24T05:06:02.309Z,9.86
2022-12-24T05:08:29.092Z,9.88
2022-12-24T05:10:56.657Z,9.90
2022-12-24T05:13:23.302Z,9.90
2022-12-24T05:15:49.862Z,9.89
2022-12-24T05:18:16.386Z,9.84
2022-12-24T05:20:43.053Z,9.83
2022-12-24T05:23:28.957Z,9.87
2022-12-24T05:26:14.370Z,9.92
2022-12-24T05:28:40.867Z,9.95
2022-12-24T05:31:07.496Z,9.95
2022-12-24T05:33:34.197Z,9.97
2022-12-24T05:36:00.701Z,9.94
2022-12-24T05:38:27.238Z,9.98
2022-12-24T05:40:53.754Z,10.07
2022-12-24T05:43:20.247Z,10.05
2022-12-24T05:45:46.775Z,10.07
2022-12-24T05:48:13.514Z,10.04
2022-12-24T05:50:40.220Z,10.09
2022-12-24T05:53:07.077Z,10.08
2022-12-24T05:55:33.722Z,10.12
2022-12-24T05:58:00.454Z,10.08
2022-12-24T06:00:27.144Z,10.10
2022-12-24T06:02:53.814Z,10.02
2022-12-24T06:05:20.409Z,10.05
2022-12-24T06:07:46.998Z,10.09
2022-12-24T06:10:13.535Z,10.06
2022-12-24T06:12:40.050Z,10.04
2022-12-24T06:15:06.819Z,10.01
2022-12-24T06:17:33.575Z,9.93
2022-12-24T06:20:00.202Z,9.91
2022-12-24T06:22:26.710Z,9.88
2022-12-24T06:24:53.181Z,9.85
2022-12-24T06:27:19.850Z,9.83
2022-12-24T06:29:46.345Z,9.79
2022-12-24T06:32:12.890Z,9.80
2022-12-24T06:34:39.507Z,9.85
2022-12-24T06:37:06.038Z,9.86
2022-12-24T06:39:32.558Z,9.91
2022-12-24T06:41:59.119Z,9.88
2022-12-24T06:44:26.477Z,9.90
2022-12-24T06:46:53.105Z,10.00
2022-12-24T06:49:19.682Z,10.02
2022-12-24T06:51:46.251Z,10.02
2022-12-24T06:54:12.765Z,9.94
2022-12-24T06:56:39.357Z,9.98
2022-12-24T06:59:05.914Z,10.03
2022-12-24T07:01:32.521Z,10.01
2022-12-24T07:03:59.254Z,10.07
2022-12-24T07:06:26.938Z,10.03
2022-12-24T07:08:53.532Z,9.97
2022-12-24T07:11:20.332Z,10.01
2022-12-24T07:13:46.934Z,10.05
2022-12-24T07:16:13.516Z,9.96
2022-12-24T07:18:40.118Z,9.92
2022-12-24T07:21:07.455Z,9.95
2022-12-24T07:23:34.282Z,10.01
2022-12-24T07:26:04.601Z,10.08
2022-12-24T07:28:31.223Z,10.14
2022-12-24T07:30:57.874Z,10.19
2022-12-24T07:33:24.805Z,10.20
2022-12-24T07:36:05.025Z,10.14
2022-12-24T07:38:31.680Z,10.17
2022-12-24T07:40:58.323Z,10.16
2022-12-24T07:43:25.221Z,10.18
2022-12-24T07:45:54.186Z,10.14
2022-12-24T07:48:20.766Z,10.14
2022-12-24T07:50:48.836Z,10.12
2022-12-24T07:53:15.330Z,10.10
2022-12-24T07:55:41.857Z,10.14
2022-12-24T07:58:08.360Z,10.11
2022-12-24T08:00:34.935Z,10.10
2022-12-24T08:03:01.576Z,10.10
2022-12-24T08:05:28.340Z,10.10
2022-12-24T08:07:55.039Z,10.09
2022-12-24T08:10:21.528Z,10.06
2022-12-24T08:12:48.373Z,10.00
2022-12-24T08:15:14.879Z,9.98
2022-12-24T08:17:41.368Z,9.99
2022-12-24T08:20:08.569Z,10.04
2022-12-24T08:22:35.123Z,10.07
2022-12-24T08:25:01.673Z,10.05
2022-12-24T08:27:28.205Z,10.04
2022-12-24T08:29:54.908Z,10.03
2022-12-24T08:32:21.383Z,10.05
2022-12-24T08:34:47.962Z,10.02
2022-12-24T08:37:14.461Z,10.08
2022-12-24T08:39:41.014Z,10.11
2022-12-24T08:42:07.565Z,10.15
2022-12-24T08:44:34.158Z,10.19
2022-12-24T08:47:00.663Z,10.20
2022-12-24T08:49:27.243Z,10.22
2022-12-24T08:51:53.836Z,10.27
2022-12-24T08:54:20.341Z,10.33
2022-12-24T08:56:46.859Z,10.37
2022-12-24T08:59:13.388Z,10.40
2022-12-24T09:01:40.046Z,10.46
2022-12-24T09:04:09.637Z,10.49
2022-12-24T09:06:36.442Z,10.49
2022-12-24T09:09:03.521Z,10.52
2022-12-24T09:11:30.070Z,10.52
2022-12-24T09:13:56.632Z,10.54
2022-12-24T09:16:23.256Z,10.55
2022-12-24T09:18:49.835Z,10.57
2022-12-24T09:21:17.490Z,10.58
2022-12-24T09:23:44.617Z,10.60
2022-12-24T09:26:16.359Z,10.61
2022-12-24T09:28:42.942Z,10.63
2022-12-24T09:31:09.984Z,10.64
2022-12-24T09:33:37.105Z,10.65
2022-12-24T09:36:04.048Z,10.67
2022-12-24T09:38:30.765Z,10.69
2022-12-24T09:40:59.305Z,10.70
2022-12-24T09:43:31.953Z,10.70
2022-12-24T09:46:17.580Z,10.72
2022-12-24T09:48:45.383Z,10.73
2022-12-24T09:51:12.847Z,10.74
2022-12-24T09:53:52.390Z,10.74
2022-12-24T09:56:20.292Z,10.76
2022-12-24T09:59:02.985Z,10.79
2022-12-24T10:01:30.453Z,10.81
2022-12-24T10:03:58.518Z,10.84
2022-12-24T10:06:29.497Z,10.87
2022-12-24T10:08:56.204Z,10.91
2022-12-24T10:11:24.827Z,10.94
2022-12-24T10:13:51.255Z,11.00
2022-12-24T10:16:33.184Z,11.03
2022-12-24T10:19:02.855Z,11.05
2022-12-24T10:21:35.623Z,11.06
2022-12-24T10:24:21.194Z,11.10
2022-12-24T10:26:50.480Z,11.10
2022-12-24T10:29:18.260Z,11.10
2022-12-24T10:31:57.327Z,11.12
2022-12-24T10:34:24.289Z,11.12
2022-12-24T10:36:51.027Z,11.10
2022-12-24T10:39:19.114Z,11.12
2022-12-24T10:41:46.399Z,11.12
2022-12-24T10:44:15.391Z,11.14
2022-12-24T10:46:41.964Z,11.13
2022-12-24T10:49:12.772Z,11.13
2022-12-24T10:51:57.717Z,11.15
2022-12-24T10:54:27.313Z,11.15
2022-12-24T10:57:00.309Z,11.16
2022-12-24T10:59:39.082Z,11.15
2022-12-24T11:02:24.815Z,11.15
2022-12-24T11:04:51.519Z,11.16
2022-12-24T11:07:19.779Z,11.15
2022-12-24T11:09:54.433Z,11.18
2022-12-24T11:12:24.806Z,11.17
2022-12-24T11:15:09.999Z,11.19
2022-12-24T11:17:36.504Z,11.09
2022-12-24T11:20:04.105Z,11.13
2022-12-24T11:22:31.251Z,11.11
2022-12-24T11:24:59.014Z,11.13
2022-12-24T11:27:28.315Z,11.09
2022-12-24T11:30:13.466Z,11.10
2022-12-24T11:32:40.408Z,11.13
2022-12-24T11:35:07.864Z,11.14
2022-12-24T11:37:34.468Z,11.19
2022-12-24T11:40:01.383Z,11.22
2022-12-24T11:42:38.315Z,11.26
2022-12-24T11:45:14.513Z,11.28
2022-12-24T11:47:41.656Z,11.30
2022-12-24T11:50:19.232Z,11.29
2022-12-24T11:52:47.887Z,11.29
2022-12-24T11:55:16.454Z,11.29
2022-12-24T11:57:52.202Z,11.29
2022-12-24T12:00:18.753Z,11.27
2022-12-24T12:02:46.383Z,11.27
2022-12-24T12:05:17.798Z,11.27
2022-12-24T12:07:44.999Z,11.26
2022-12-24T12:10:15.391Z,11.24
2022-12-24T12:12:42.940Z,11.22
2022-12-24T12:15:09.449Z,11.21
2022-12-24T12:17:37.160Z,11.20
2022-12-24T12:20:23.888Z,11.20
2022-12-24T12:22:53.909Z,11.18
2022-12-24T12:25:28.045Z,11.18
2022-12-24T12:27:55.921Z,11.17
2022-12-24T12:30:22.762Z,11.17
2022-12-24T12:33:01.819Z,11.15
2022-12-24T12:35:30.381Z,11.17
2022-12-24T12:37:58.351Z,11.14
2022-12-24T12:40:32.593Z,11.14
2022-12-24T12:43:14.232Z,11.14
2022-12-24T12:45:43.798Z,11.15
2022-12-24T12:48:29.424Z,11.14
2022-12-24T12:50:58.772Z,11.15
2022-12-24T12:53:27.995Z,11.12
2022-12-24T12:56:03.369Z,11.12
2022-12-24T12:58:31.553Z,11.11
2022-12-24T13:01:00.593Z,11.12
2022-12-24T13:03:45.640Z,11.14
2022-12-24T13:06:27.397Z,11.15
2022-12-24T13:09:03.029Z,11.14
2022-12-24T13:11:36.453Z,11.14
2022-12-24T13:14:02.957Z,11.13
2022-12-24T13:16:36.230Z,11.15
2022-12-24T13:19:21.325Z,11.15
2022-12-24T13:21:50.586Z,11.16
2022-12-24T13:24:24.551Z,11.15
2022-12-24T13:27:09.766Z,11.12
2022-12-24T13:29:36.234Z,11.07
2022-12-24T13:32:21.282Z,11.09
2022-12-24T13:34:50.888Z,11.11
2022-12-24T13:37:20.448Z,11.12
2022-12-24T13:40:02.773Z,11.12
2022-12-24T13:42:47.961Z,11.13
2022-12-24T13:45:30.114Z,11.14
2022-12-24T13:47:56.701Z,11.12
2022-12-24T13:50:41.742Z,11.11
2022-12-24T13:53:22.584Z,11.09
2022-12-24T13:55:55.939Z,11.10
2022-12-24T13:58:23.482Z,11.09
2022-12-24T14:01:00.751Z,11.08
2022-12-24T14:03:28.312Z,11.09
2022-12-24T14:06:07.711Z,11.10
2022-12-24T14:08:42.027Z,11.07
2022-12-24T14:11:10.307Z,11.07
2022-12-24T14:13:39.736Z,11.07
2022-12-24T14:16:15.152Z,11.07
2022-12-24T14:18:42.475Z,11.05
2022-12-24T14:21:16.098Z,11.05
2022-12-24T14:23:58.564Z,11.04
2022-12-24T14:26:27.668Z,11.03
2022-12-24T14:29:04.632Z,11.02
2022-12-24T14:31:31.242Z,11.02
2022-12-24T14:34:07.881Z,11.00
2022-12-24T14:36:34.557Z,10.99
2022-12-24T14:39:01.247Z,10.99
2022-12-24T14:41:30.681Z,10.95
2022-12-24T14:44:16.257Z,10.93
2022-12-24T14:46:50.966Z,10.90
2022-12-24T14:49:32.349Z,10.86
2022-12-24T14:52:30.810Z,10.83
2022-12-24T14:54:57.267Z,10.75
2022-12-24T14:57:24.667Z,10.71
2022-12-24T14:59:58.337Z,10.66
2022-12-24T15:02:43.820Z,10.60
2022-12-24T15:05:20.855Z,10.58
2022-12-24T15:07:57.399Z,10.56
2022-12-24T15:10:25.802Z,10.47
2022-12-24T15:12:52.383Z,10.42
2022-12-24T15:15:18.923Z,10.37
2022-12-24T15:17:45.488Z,10.36
2022-12-24T15:20:17.112Z,10.35
2022-12-24T15:22:43.644Z,10.29
2022-12-24T15:25:17.660Z,10.29
2022-12-24T15:27:44.171Z,10.25
2022-12-24T15:30:14.424Z,10.23
2022-12-24T15:32:41.027Z,10.17
2022-12-24T15:35:07.723Z,10.16
2022-12-24T15:37:38.069Z,10.11
2022-12-24T15:40:08.235Z,10.06
2022-12-24T15:42:34.729Z,10.06
2022-12-24T15:45:02.874Z,10.03
2022-12-24T15:47:37.869Z,10.06
2022-12-24T15:50:18.850Z,10.03
2022-12-24T15:52:45.389Z,10.06
2022-12-24T15:55:30.474Z,10.02
2022-12-24T15:57:57.072Z,10.05
2022-12-24T16:00:24.760Z,10.05
2022-12-24T16:02:51.526Z,9.96
2022-12-24T16:05:19.271Z,10.00
2022-12-24T16:08:07.508Z,10.07
2022-12-24T16:10:34.980Z,10.06
2022-12-24T16:13:01.503Z,10.04
2022-12-24T16:15:28.062Z,10.03
2022-12-24T16:17:54.704Z,9.95
2022-12-24T16:20:21.953Z,9.94
2022-12-24T16:22:49.057Z,9.95
2022-12-24T16:25:20.819Z,9.97
2022-12-24T16:27:47.343Z,9.99
2022-12-24T16:30:13.965Z,9.98
2022-12-24T16:32:42.007Z,10.03
2022-12-24T16:35:16.873Z,10.03
2022-12-24T16:37:43.490Z,9.96
2022-12-24T16:40:18.274Z,9.96
2022-12-24T16:43:05.987Z,10.01
2022-12-24T16:45:32.527Z,9.98
2022-12-24T16:47:59.020Z,9.97
2022-12-24T16:50:25.613Z,10.04
2022-12-24T16:52:52.268Z,10.05
2022-12-24T16:55:18.794Z,10.10
2022-12-24T16:57:45.318Z,10.11
2022-12-24T17:00:16.798Z,10.06
2022-12-24T17:02:43.592Z,10.05
2022-12-24T17:05:10.285Z,10.05
2022-12-24T17:07:42.947Z,10.07
2022-12-24T17:10:10.971Z,9.99
2022-12-24T17:12:37.522Z,10.03
2022-12-24T17:15:04.250Z,10.04
2022-12-24T17:17:30.849Z,10.01
2022-12-24T17:19:57.748Z,10.03
2022-12-24T17:22:24.728Z,10.02
2022-12-24T17:24:51.393Z,9.97
2022-12-24T17:27:18.019Z,10.00
2022-12-24T17:29:44.699Z,9.99
2022-12-24T17:32:11.334Z,9.97
2022-12-24T17:34:37.969Z,9.94
2022-12-24T17:37:04.763Z,9.91
2022-12-24T17:39:31.327Z,9.93
2022-12-24T17:41:57.816Z,9.93
2022-12-24T17:44:24.400Z,9.90
2022-12-24T17:46:51.182Z,9.90
2022-12-24T17:49:17.958Z,9.93
2022-12-24T17:51:45.953Z,9.93
2022-12-24T17:54:12.895Z,9.93
2022-12-24T17:56:39.716Z,9.93
2022-12-24T17:59:06.266Z,9.92
2022-12-24T18:01:33.184Z,9.90
2022-12-24T18:04:00.664Z,9.92
2022-12-24T18:06:27.481Z,9.89
2022-12-24T18:08:54.200Z,9.84
2022-12-24T18:11:20.634Z,9.91
2022-12-24T18:13:47.247Z,9.90
2022-12-24T18:16:23.911Z,9.89
2022-12-24T18:18:50.678Z,9.89
2022-12-24T18:21:17.612Z,9.83
2022-12-24T18:23:44.605Z,9.81
2022-12-24T18:26:11.321Z,9.78
2022-12-24T18:28:37.908Z,9.82
2022-12-24T18:31:05.497Z,9.81
2022-12-24T18:33:32.332Z,9.80
2022-12-24T18:35:58.824Z,9.82
2022-12-24T18:38:25.379Z,9.80
2022-12-24T18:40:51.879Z,9.83
2022-12-24T18:43:18.382Z,9.81
2022-12-24T18:45:45.191Z,9.84
2022-12-24T18:48:12.545Z,9.85
2022-12-24T18:50:39.789Z,9.87
2022-12-24T18:53:06.922Z,9.88
2022-12-24T18:55:36.966Z,9.85
2022-12-24T18:58:03.704Z,9.80
2022-12-24T19:00:30.438Z,9.83
2022-12-24T19:02:57.225Z,9.79
2022-12-24T19:05:23.811Z,9.78
2022-12-24T19:07:50.336Z,9.72
2022-12-24T19:10:16.846Z,9.76
2022-12-24T19:12:43.359Z,9.72
2022-12-24T19:15:10.176Z,9.72
2022-12-24T19:17:36.806Z,9.74
2022-12-24T19:20:03.497Z,9.78
2022-12-24T19:22:30.017Z,9.77
2022-12-24T19:24:56.601Z,9.78
2022-12-24T19:27:23.102Z,9.82
2022-12-24T19:29:49.589Z,9.82
2022-12-24T19:32:16.174Z,9.88
2022-12-24T19:34:42.690Z,9.92
2022-12-24T19:37:09.333Z,9.88
2022-12-24T19:39:35.941Z,9.85
2022-12-24T19:42:02.555Z,9.84
2022-12-24T19:44:29.036Z,9.88
2022-12-24T19:46:55.688Z,9.91
2022-12-24T19:49:22.254Z,9.93
2022-12-24T19:51:48.860Z,9.91
2022-12-24T19:54:19.195Z,9.93
2022-12-24T19:56:46.118Z,9.81
2022-12-24T19:59:12.754Z,9.85
2022-12-24T20:01:39.741Z,9.83
2022-12-24T20:04:06.570Z,9.86
2022-12-24T20:06:34.278Z,9.80
2022-12-24T20:09:01.599Z,9.81
2022-12-24T20:11:28.611Z,9.82
2022-12-24T20:13:58.603Z,9.88
2022-12-24T20:16:25.291Z,9.89
2022-12-24T20:18:58.639Z,9.85
2022-12-24T20:21:25.538Z,9.82
2022-12-24T20:23:52.165Z,9.80
2022-12-24T20:26:19.803Z,9.75
2022-12-24T20:28:46.663Z,9.75
2022-12-24T20:31:17.409Z,9.72
2022-12-24T20:33:44.239Z,9.71
2022-12-24T20:36:10.865Z,9.72
2022-12-24T20:38:37.972Z,9.68
2022-12-24T20:41:05.525Z,9.69
2022-12-24T20:43:37.241Z,9.73
2022-12-24T20:46:05.318Z,9.73
2022-12-24T20:48:31.982Z,9.77
2022-12-24T20:50:58.936Z,9.77
2022-12-24T20:53:26.492Z,9.78
2022-12-24T20:55:53.409Z,9.74
2022-12-24T20:58:20.230Z,9.74
2022-12-24T21:00:47.282Z,9.73
2022-12-24T21:03:14.677Z,9.64
2022-12-24T21:05:41.815Z,9.69
2022-12-24T21:08:08.910Z,9.66
2022-12-24T21:10:35.679Z,9.71
2022-12-24T21:13:02.308Z,9.67
2022-12-24T21:15:30.182Z,9.72
2022-12-24T21:17:56.854Z,9.74
2022-12-24T21:20:30.116Z,9.72
2022-12-24T21:23:00.840Z,9.72
2022-12-24T21:25:27.985Z,9.72
2022-12-24T21:27:57.285Z,9.72
2022-12-24T21:30:24.089Z,9.71
2022-12-24T21:32:50.696Z,9.71
2022-12-24T21:35:17.289Z,9.73
2022-12-24T21:37:43.942Z,9.70
2022-12-24T21:40:10.839Z,9.75
2022-12-24T21:42:37.503Z,9.76
2022-12-24T21:45:04.446Z,9.77
2022-12-24T21:47:30.935Z,9.69
2022-12-24T21:50:16.164Z,9.71
2022-12-24T21:52:42.871Z,9.72
2022-12-24T21:55:09.401Z,9.68
2022-12-24T21:57:54.053Z,9.66
2022-12-24T22:00:24.364Z,9.73
2022-12-24T22:02:51.984Z,9.72
2022-12-24T22:05:18.911Z,9.75
2022-12-24T22:08:04.045Z,9.74
2022-12-24T22:10:49.296Z,9.73
2022-12-24T22:13:15.927Z,9.74
2022-12-24T22:15:44.386Z,9.68
2022-12-24T22:18:11.011Z,9.70
2022-12-24T22:20:38.027Z,9.70
2022-12-24T22:23:04.592Z,9.73
2022-12-24T22:25:31.313Z,9.72
2022-12-24T22:27:58.345Z,9.71
2022-12-24T22:30:25.625Z,9.66
2022-12-24T22:32:52.454Z,9.65
2022-12-24T22:35:19.112Z,9.59
2022-12-24T22:37:45.737Z,9.56
2022-12-24T22:40:12.411Z,9.57
2022-12-24T22:42:39.017Z,9.54
2022-12-24T22:45:05.903Z,9.55
2022-12-24T22:47:32.526Z,9.50
2022-12-24T22:49:59.198Z,9.50
2022-12-24T22:52:25.900Z,9.55
2022-12-24T22:54:52.427Z,9.55
2022-12-24T22:57:18.994Z,9.55
2022-12-24T22:59:45.596Z,9.51
2022-12-24T23:02:13.142Z,9.49
2022-12-24T23:04:40.285Z,9.54
2022-12-24T23:07:07.671Z,9.51
2022-12-24T23:09:34.177Z,9.52
2022-12-24T23:12:00.881Z,9.56
2022-12-24T23:14:45.877Z,9.59
2022-12-24T23:17:12.400Z,9.57
2022-12-24T23:19:39.170Z,9.50
2022-12-24T23:22:06.121Z,9.47
2022-12-24T23:24:33.214Z,9.42
2022-12-24T23:27:01.500Z,9.40
2022-12-24T23:29:28.755Z,9.39
2022-12-24T23:31:55.308Z,9.37
2022-12-24T23:34:21.833Z,9.30
2022-12-24T23:36:48.448Z,9.32
2022-12-24T23:39:14.975Z,9.30
2022-12-24T23:41:41.497Z,9.28
2022-12-24T23:44:08.005Z,9.24
2022-12-24T23:46:34.716Z,9.30
2022-12-24T23:49:01.387Z,9.19
2022-12-24T23:51:28.435Z,9.17
2022-12-24T23:53:55.373Z,9.09
2022-12-24T23:56:22.397Z,9.08
2022-12-24T23:58:49.110Z,9.11
